createdAt,value
2018-05-23T00:00:01.448Z,0.00
2018-05-23T00:01:01.442Z,0.00
2018-05-23T00:02:01.424Z,0.00
2018-05-23T00:03:01.411Z,0.00
2018-05-23T00:04:01.413Z,0.00
2018-05-23T00:05:01.381Z,0.00
2018-05-23T00:06:01.371Z,0.00
2018-05-23T00:07:01.360Z,0.00
2018-05-23T00:08:01.355Z,0.00
2018-05-23T00:09:01.352Z,0.00
2018-05-23T00:10:01.322Z,0.00
2018-05-23T00:11:01.314Z,0.00
2018-05-23T00:12:01.316Z,0.00
2018-05-23T00:13:01.288Z,0.00
2018-05-23T00:14:01.288Z,0.00
2018-05-23T00:15:01.275Z,0.00
2018-05-23T00:16:01.258Z,0.00
2018-05-23T00:17:01.236Z,0.00
2018-05-23T00:18:01.236Z,0.00
2018-05-23T00:19:01.206Z,0.00
2018-05-23T00:20:01.222Z,0.00
2018-05-23T00:21:01.181Z,0.00
2018-05-23T00:22:01.172Z,0.00
2018-05-23T00:23:01.173Z,0.00
2018-05-23T00:24:01.156Z,0.00
2018-05-23T00:25:01.131Z,0.00
2018-05-23T00:26:01.136Z,0.00
2018-05-23T00:27:01.099Z,0.00
2018-05-23T00:28:01.089Z,0.00
2018-05-23T00:29:01.073Z,0.00
2018-05-23T00:30:01.085Z,0.00
2018-05-23T00:31:01.050Z,0.00
2018-05-23T00:32:01.034Z,0.00
2018-05-23T00:33:01.042Z,0.00
2018-05-23T00:34:01.094Z,0.00
2018-05-23T00:35:01.002Z,0.00
2018-05-23T00:36:00.990Z,0.00
2018-05-23T00:37:00.977Z,0.00
2018-05-23T00:38:00.976Z,0.00
2018-05-23T00:39:00.944Z,0.00
2018-05-23T00:40:00.939Z,0.00
2018-05-23T00:41:00.925Z,0.00
2018-05-23T00:42:00.910Z,0.00
2018-05-23T00:43:00.907Z,0.00
2018-05-23T00:44:00.878Z,0.00
2018-05-23T00:45:00.872Z,0.00
2018-05-23T00:46:00.872Z,0.00
2018-05-23T00:47:00.842Z,0.00
2018-05-23T00:48:00.832Z,0.00
2018-05-23T00:49:00.815Z,0.00
2018-05-23T00:50:00.803Z,0.00
2018-05-23T00:51:00.815Z,0.00
2018-05-23T00:52:00.775Z,0.00
2018-05-23T00:53:00.775Z,0.00
2018-05-23T00:54:00.754Z,0.00
2018-05-23T00:55:00.763Z,0.00
2018-05-23T00:56:00.724Z,0.00
2018-05-23T00:57:00.729Z,0.00
2018-05-23T00:58:00.704Z,0.00
2018-05-23T00:59:00.703Z,0.00
2018-05-23T01:00:00.676Z,0.00
2018-05-23T01:01:00.662Z,0.00
2018-05-23T01:02:00.666Z,0.00
2018-05-23T01:03:00.635Z,0.00
2018-05-23T01:04:00.620Z,0.00
2018-05-23T01:05:00.607Z,0.00
2018-05-23T01:06:00.594Z,0.00
2018-05-23T01:07:00.582Z,0.00
2018-05-23T01:08:00.578Z,0.00
2018-05-23T01:09:00.564Z,0.00
2018-05-23T01:10:00.545Z,0.00
2018-05-23T01:11:00.532Z,0.00
2018-05-23T01:12:00.552Z,0.00
2018-05-23T01:13:00.519Z,0.00
2018-05-23T01:14:00.492Z,0.00
2018-05-23T01:15:00.479Z,0.00
2018-05-23T01:16:00.465Z,0.00
2018-05-23T01:17:00.452Z,0.00
2018-05-23T01:18:00.448Z,0.00
2018-05-23T01:19:00.438Z,0.00
2018-05-23T01:20:00.410Z,0.00
2018-05-23T01:21:00.404Z,0.00
2018-05-23T01:22:00.385Z,0.00
2018-05-23T01:23:00.371Z,0.00
2018-05-23T01:24:00.373Z,0.00
2018-05-23T01:25:00.346Z,0.00
2018-05-23T01:26:00.335Z,0.00
2018-05-23T01:27:00.321Z,0.00
2018-05-23T01:28:00.310Z,0.00
2018-05-23T01:29:00.312Z,0.00
2018-05-23T01:30:00.284Z,0.00
2018-05-23T01:31:00.266Z,0.00
2018-05-23T01:32:21.266Z,0.00
2018-05-23T01:33:00.237Z,0.00
2018-05-23T01:34:00.228Z,0.00
2018-05-23T01:35:00.218Z,0.00
2018-05-23T01:36:00.221Z,0.00
2018-05-23T01:37:00.187Z,0.00
2018-05-23T01:38:00.177Z,0.00
2018-05-23T01:39:00.164Z,0.00
2018-05-23T01:40:00.154Z,0.00
2018-05-23T01:41:00.145Z,0.00
2018-05-23T01:42:00.140Z,0.00
2018-05-23T01:43:00.126Z,0.00
2018-05-23T01:44:00.101Z,0.00
2018-05-23T01:45:00.089Z,0.00
2018-05-23T01:46:00.094Z,0.00
2018-05-23T01:47:00.057Z,0.00
2018-05-23T01:48:00.065Z,0.00
2018-05-23T01:49:00.051Z,0.00
2018-05-23T01:50:00.019Z,0.00
2018-05-23T01:51:00.023Z,0.00
2018-05-23T01:52:00.000Z,0.00
2018-05-23T01:52:59.983Z,0.00
2018-05-23T01:53:59.971Z,0.00
2018-05-23T01:54:59.956Z,0.00
2018-05-23T01:55:59.961Z,0.00
2018-05-23T01:56:59.947Z,0.00
2018-05-23T01:57:59.920Z,0.00
2018-05-23T01:58:59.905Z,0.00
2018-05-23T01:59:59.909Z,0.00
2018-05-23T02:00:59.881Z,0.00
2018-05-23T02:01:59.883Z,0.00
2018-05-23T02:02:59.853Z,0.00
2018-05-23T02:03:59.847Z,0.00
2018-05-23T02:04:59.828Z,0.00
2018-05-23T02:05:59.815Z,0.00
2018-05-23T02:06:59.823Z,0.00
2018-05-23T02:07:59.792Z,0.00
2018-05-23T02:08:59.777Z,0.00
2018-05-23T02:09:59.758Z,0.00
2018-05-23T02:10:59.754Z,0.00
2018-05-23T02:11:59.792Z,0.00
2018-05-23T02:12:59.743Z,0.00
2018-05-23T02:13:59.707Z,0.00
2018-05-23T02:14:59.696Z,0.00
2018-05-23T02:15:59.682Z,0.00
2018-05-23T02:16:59.674Z,0.00
2018-05-23T02:17:59.671Z,0.00
2018-05-23T02:18:59.639Z,0.00
2018-05-23T02:19:59.636Z,0.00
2018-05-23T02:20:59.622Z,0.00
2018-05-23T02:21:59.607Z,0.00
2018-05-23T02:22:59.609Z,0.00
2018-05-23T02:23:59.591Z,0.00
2018-05-23T02:24:59.565Z,0.00
2018-05-23T02:25:59.569Z,0.00
2018-05-23T02:26:59.541Z,0.00
2018-05-23T02:27:59.529Z,0.00
2018-05-23T02:28:59.513Z,0.00
2018-05-23T02:29:59.501Z,0.00
2018-05-23T02:30:59.504Z,0.00
2018-05-23T02:31:59.474Z,0.00
2018-05-23T02:32:59.462Z,0.00
2018-05-23T02:33:59.449Z,0.00
2018-05-23T02:34:59.437Z,0.00
2018-05-23T02:35:59.439Z,0.00
2018-05-23T02:36:59.424Z,0.00
2018-05-23T02:37:59.413Z,0.00
2018-05-23T02:38:59.383Z,0.00
2018-05-23T02:39:59.373Z,0.00
2018-05-23T02:40:59.372Z,0.00
2018-05-23T02:41:59.343Z,0.00
2018-05-23T02:42:59.332Z,0.00
2018-05-23T02:43:59.318Z,0.00
2018-05-23T02:44:59.303Z,0.00
2018-05-23T02:45:59.295Z,0.00
2018-05-23T02:46:59.323Z,0.00
2018-05-23T02:47:59.266Z,0.00
2018-05-23T02:48:59.253Z,0.00
2018-05-23T02:49:59.238Z,0.00
2018-05-23T02:50:59.225Z,0.00
2018-05-23T02:51:59.230Z,0.00
2018-05-23T02:52:59.198Z,0.00
2018-05-23T02:53:59.187Z,0.00
2018-05-23T02:54:59.187Z,0.00
2018-05-23T02:55:59.178Z,0.00
2018-05-23T02:56:59.151Z,0.00
2018-05-23T02:57:59.136Z,0.00
2018-05-23T02:58:59.116Z,0.00
2018-05-23T02:59:59.107Z,0.00
2018-05-23T03:00:59.111Z,0.00
2018-05-23T03:02:00.351Z,0.00
2018-05-23T03:02:59.223Z,0.00
2018-05-23T03:03:59.056Z,0.00
2018-05-23T03:04:59.043Z,0.00
2018-05-23T03:05:59.032Z,0.00
2018-05-23T03:06:59.038Z,0.00
2018-05-23T03:07:59.005Z,0.00
2018-05-23T03:08:58.993Z,0.00
2018-05-23T03:09:58.996Z,0.00
2018-05-23T03:10:58.963Z,0.00
2018-05-23T03:11:58.980Z,0.00
2018-05-23T03:12:58.939Z,0.00
2018-05-23T03:13:58.926Z,4.00
2018-05-23T03:14:58.914Z,4.00
2018-05-23T03:15:58.913Z,4.00
2018-05-23T03:16:58.883Z,4.00
2018-05-23T03:17:58.904Z,0.00
2018-05-23T03:18:58.857Z,0.00
2018-05-23T03:19:58.849Z,4.00
2018-05-23T03:20:58.831Z,4.00
2018-05-23T03:21:58.835Z,4.00
2018-05-23T03:22:58.800Z,4.00
2018-05-23T03:23:58.809Z,8.00
2018-05-23T03:24:58.781Z,4.00
2018-05-23T03:25:58.770Z,4.00
2018-05-23T03:26:58.763Z,4.00
2018-05-23T03:27:58.740Z,8.00
2018-05-23T03:28:58.745Z,8.00
2018-05-23T03:29:58.708Z,8.00
2018-05-23T03:30:58.699Z,8.00
2018-05-23T03:31:58.687Z,8.00
2018-05-23T03:32:58.672Z,8.00
2018-05-23T03:33:58.663Z,12.00
2018-05-23T03:34:58.662Z,12.00
2018-05-23T03:35:58.632Z,8.00
2018-05-23T03:36:58.618Z,12.00
2018-05-23T03:37:58.606Z,12.00
2018-05-23T03:38:58.594Z,12.00
2018-05-23T03:39:58.596Z,16.00
2018-05-23T03:40:58.561Z,12.00
2018-05-23T03:41:58.549Z,16.00
2018-05-23T03:42:58.541Z,16.00
2018-05-23T03:43:58.531Z,16.00
2018-05-23T03:44:58.509Z,16.00
2018-05-23T03:45:58.514Z,20.00
2018-05-23T03:46:58.485Z,20.00
2018-05-23T03:47:58.474Z,20.00
2018-05-23T03:48:58.459Z,20.00
2018-05-23T03:49:58.459Z,24.00
2018-05-23T03:50:58.446Z,24.00
2018-05-23T03:51:58.426Z,24.00
2018-05-23T03:52:58.419Z,28.00
2018-05-23T03:53:58.402Z,28.00
2018-05-23T03:54:58.378Z,32.00
2018-05-23T03:55:58.369Z,32.00
2018-05-23T03:56:58.367Z,36.00
2018-05-23T03:57:58.341Z,40.00
2018-05-23T03:58:58.327Z,40.00
2018-05-23T03:59:58.315Z,40.00
2018-05-23T04:00:58.342Z,44.00
2018-05-23T04:01:58.307Z,44.00
2018-05-23T04:02:58.280Z,48.00
2018-05-23T04:03:58.274Z,48.00
2018-05-23T04:04:58.256Z,48.00
2018-05-23T04:05:58.240Z,52.00
2018-05-23T04:06:58.243Z,52.00
2018-05-23T04:07:58.221Z,56.00
2018-05-23T04:08:58.214Z,56.00
2018-05-23T04:09:58.184Z,60.00
2018-05-23T04:10:58.173Z,56.00
2018-05-23T04:11:58.432Z,60.00
2018-05-23T04:12:58.147Z,64.00
2018-05-23T04:13:58.127Z,64.00
2018-05-23T04:14:58.114Z,68.00
2018-05-23T04:15:58.098Z,72.00
2018-05-23T04:16:58.112Z,72.00
2018-05-23T04:17:58.072Z,76.00
2018-05-23T04:18:58.062Z,76.00
2018-05-23T04:19:58.047Z,80.00
2018-05-23T04:20:58.039Z,80.00
2018-05-23T04:21:58.023Z,80.00
2018-05-23T04:22:58.026Z,84.00
2018-05-23T04:23:57.996Z,84.00
2018-05-23T04:24:58.130Z,84.00
2018-05-23T04:25:57.968Z,84.00
2018-05-23T04:26:57.955Z,84.00
2018-05-23T04:27:57.943Z,88.00
2018-05-23T04:28:57.930Z,88.00
2018-05-23T04:29:57.938Z,88.00
2018-05-23T04:30:57.915Z,92.00
2018-05-23T04:31:57.893Z,88.00
2018-05-23T04:32:57.891Z,88.00
2018-05-23T04:33:57.866Z,88.00
2018-05-23T04:34:57.870Z,88.00
2018-05-23T04:35:57.848Z,92.00
2018-05-23T04:36:57.826Z,88.00
2018-05-23T04:37:57.818Z,88.00
2018-05-23T04:38:57.799Z,88.00
2018-05-23T04:39:57.800Z,88.00
2018-05-23T04:40:57.773Z,88.00
2018-05-23T04:41:57.764Z,88.00
2018-05-23T04:42:57.746Z,88.00
2018-05-23T04:43:57.748Z,88.00
2018-05-23T04:44:57.723Z,88.00
2018-05-23T04:45:57.710Z,88.00
2018-05-23T04:46:57.698Z,88.00
2018-05-23T04:48:03.949Z,84.00
2018-05-23T04:48:57.688Z,84.00
2018-05-23T04:49:57.667Z,84.00
2018-05-23T04:50:57.643Z,80.00
2018-05-23T04:51:57.629Z,80.00
2018-05-23T04:52:57.617Z,80.00
2018-05-23T04:53:57.601Z,80.00
2018-05-23T04:54:57.612Z,84.00
2018-05-23T04:55:57.579Z,88.00
2018-05-23T04:56:57.568Z,92.00
2018-05-23T04:57:57.554Z,96.00
2018-05-23T04:58:57.536Z,104.00
2018-05-23T04:59:57.539Z,108.00
2018-05-23T05:00:57.517Z,116.00
2018-05-23T05:01:57.503Z,120.00
2018-05-23T05:02:57.493Z,128.00
2018-05-23T05:03:57.479Z,132.00
2018-05-23T05:04:57.479Z,136.00
2018-05-23T05:06:34.597Z,144.00
2018-05-23T05:06:57.457Z,148.00
2018-05-23T05:07:57.431Z,156.00
2018-05-23T05:08:57.424Z,160.00
2018-05-23T05:09:57.404Z,168.00
2018-05-23T05:10:57.389Z,172.00
2018-05-23T05:11:57.377Z,180.00
2018-05-23T05:12:57.360Z,188.00
2018-05-23T05:13:57.349Z,188.00
2018-05-23T05:14:57.349Z,192.00
2018-05-23T05:15:57.328Z,200.00
2018-05-23T05:16:57.326Z,204.00
2018-05-23T05:17:57.297Z,208.00
2018-05-23T05:18:57.284Z,212.00
2018-05-23T05:19:57.282Z,216.00
2018-05-23T05:20:57.258Z,216.00
2018-05-23T05:21:57.247Z,220.00
2018-05-23T05:22:57.228Z,220.00
2018-05-23T05:23:57.222Z,224.00
2018-05-23T05:25:00.007Z,232.00
2018-05-23T05:25:57.210Z,236.00
2018-05-23T05:26:57.496Z,240.00
2018-05-23T05:27:57.166Z,248.00
2018-05-23T05:28:57.168Z,248.00
2018-05-23T05:29:57.147Z,256.00
2018-05-23T05:30:57.132Z,264.00
2018-05-23T05:31:57.129Z,272.00
2018-05-23T05:32:57.122Z,280.00
2018-05-23T05:33:57.110Z,284.00
2018-05-23T05:34:57.081Z,292.00
2018-05-23T05:35:57.063Z,292.00
2018-05-23T05:36:57.068Z,296.00
2018-05-23T05:37:57.093Z,300.00
2018-05-23T05:38:57.032Z,296.00
2018-05-23T05:39:57.016Z,300.00
2018-05-23T05:40:57.011Z,296.00
2018-05-23T05:41:56.991Z,296.00
2018-05-23T05:42:56.971Z,296.00
2018-05-23T05:43:57.000Z,296.00
2018-05-23T05:44:56.954Z,292.00
2018-05-23T05:45:56.941Z,288.00
2018-05-23T05:46:56.998Z,284.00
2018-05-23T05:47:56.914Z,280.00
2018-05-23T05:48:56.903Z,276.00
2018-05-23T05:49:56.903Z,272.00
2018-05-23T05:50:56.896Z,272.00
2018-05-23T05:51:56.864Z,268.00
2018-05-23T05:52:56.864Z,268.00
2018-05-23T05:53:56.838Z,268.00
2018-05-23T05:54:56.834Z,268.00
2018-05-23T05:55:56.813Z,272.00
2018-05-23T05:56:56.796Z,268.00
2018-05-23T05:57:56.805Z,264.00
2018-05-23T05:58:56.778Z,256.00
2018-05-23T05:59:56.777Z,248.00
2018-05-23T06:00:56.756Z,248.00
2018-05-23T06:01:56.784Z,252.00
2018-05-23T06:02:56.722Z,264.00
2018-05-23T06:03:56.722Z,276.00
2018-05-23T06:04:56.730Z,288.00
2018-05-23T06:05:56.713Z,292.00
2018-05-23T06:06:56.668Z,284.00
2018-05-23T06:07:56.662Z,276.00
2018-05-23T06:08:56.655Z,276.00
2018-05-23T06:09:56.680Z,288.00
2018-05-23T06:10:56.624Z,308.00
2018-05-23T06:11:56.612Z,324.00
2018-05-23T06:12:56.607Z,332.00
2018-05-23T06:13:56.587Z,332.00
2018-05-23T06:14:56.573Z,332.00
2018-05-23T06:15:56.577Z,336.00
2018-05-23T06:16:56.569Z,340.00
2018-05-23T06:17:56.532Z,348.00
2018-05-23T06:18:56.524Z,356.00
2018-05-23T06:19:56.515Z,364.00
2018-05-23T06:20:56.522Z,372.00
2018-05-23T06:21:56.482Z,376.00
2018-05-23T06:22:56.476Z,388.00
2018-05-23T06:23:56.477Z,400.00
2018-05-23T06:24:56.456Z,412.00
2018-05-23T06:25:56.484Z,428.00
2018-05-23T06:26:56.448Z,448.00
2018-05-23T06:27:56.449Z,468.00
2018-05-23T06:28:56.402Z,488.00
2018-05-23T06:29:56.387Z,508.00
2018-05-23T06:30:56.376Z,528.00
2018-05-23T06:31:56.366Z,548.00
2018-05-23T06:32:56.370Z,568.00
2018-05-23T06:33:56.341Z,584.00
2018-05-23T06:34:56.325Z,600.00
2018-05-23T06:35:56.320Z,620.00
2018-05-23T06:36:56.340Z,636.00
2018-05-23T06:37:56.292Z,660.00
2018-05-23T06:38:56.271Z,688.00
2018-05-23T06:39:56.273Z,708.00
2018-05-23T06:40:56.252Z,728.00
2018-05-23T06:41:56.246Z,744.00
2018-05-23T06:42:56.249Z,752.00
2018-05-23T06:43:56.238Z,756.00
2018-05-23T06:44:56.207Z,760.00
2018-05-23T06:45:56.201Z,752.00
2018-05-23T06:46:56.203Z,748.00
2018-05-23T06:47:56.166Z,744.00
2018-05-23T06:48:56.165Z,740.00
2018-05-23T06:49:56.204Z,740.00
2018-05-23T06:50:56.132Z,740.00
2018-05-23T06:51:56.120Z,748.00
2018-05-23T06:52:56.127Z,752.00
2018-05-23T06:53:56.103Z,760.00
2018-05-23T06:54:56.096Z,768.00
2018-05-23T06:55:56.069Z,780.00
2018-05-23T06:56:56.054Z,792.00
2018-05-23T06:57:56.044Z,804.00
2018-05-23T06:58:56.062Z,816.00
2018-05-23T06:59:56.027Z,832.00
2018-05-23T07:00:56.031Z,848.00
2018-05-23T07:01:56.022Z,860.00
2018-05-23T07:02:55.998Z,868.00
2018-05-23T07:03:55.976Z,880.00
2018-05-23T07:04:55.971Z,892.00
2018-05-23T07:05:56.046Z,900.00
2018-05-23T07:06:55.949Z,916.00
2018-05-23T07:07:55.928Z,924.00
2018-05-23T07:08:55.919Z,932.00
2018-05-23T07:09:55.908Z,944.00
2018-05-23T07:10:55.908Z,960.00
2018-05-23T07:11:55.882Z,968.00
2018-05-23T07:12:55.870Z,980.00
2018-05-23T07:13:55.865Z,988.00
2018-05-23T07:14:55.844Z,1000.00
2018-05-23T07:15:55.880Z,1012.00
2018-05-23T07:16:55.835Z,1024.00
2018-05-23T07:17:55.897Z,1028.00
2018-05-23T07:18:55.802Z,1040.00
2018-05-23T07:19:55.795Z,1044.00
2018-05-23T07:20:55.795Z,1052.00
2018-05-23T07:21:55.803Z,1064.00
2018-05-23T07:22:55.760Z,1064.00
2018-05-23T07:23:55.784Z,1068.00
2018-05-23T07:24:55.748Z,1080.00
2018-05-23T07:25:55.817Z,1104.00
2018-05-23T07:26:55.715Z,1128.00
2018-05-23T07:27:55.713Z,1168.00
2018-05-23T07:28:55.689Z,1220.00
2018-05-23T07:29:55.700Z,1280.00
2018-05-23T07:30:55.668Z,1352.00
2018-05-23T07:31:55.661Z,1424.00
2018-05-23T07:32:55.649Z,1484.00
2018-05-23T07:33:55.639Z,1540.00
2018-05-23T07:34:55.659Z,1600.00
2018-05-23T07:35:55.614Z,1652.00
2018-05-23T07:36:55.624Z,1692.00
2018-05-23T07:37:55.596Z,1724.00
2018-05-23T07:38:55.589Z,1760.00
2018-05-23T07:39:55.587Z,1784.00
2018-05-23T07:40:55.562Z,1800.00
2018-05-23T07:41:55.548Z,1808.00
2018-05-23T07:42:55.564Z,1796.00
2018-05-23T07:43:55.543Z,1788.00
2018-05-23T07:44:55.515Z,1792.00
2018-05-23T07:45:55.566Z,1812.00
2018-05-23T07:46:55.492Z,1840.00
2018-05-23T07:47:55.502Z,1860.00
2018-05-23T07:48:55.491Z,1888.00
2018-05-23T07:49:55.473Z,1912.00
2018-05-23T07:50:55.458Z,1912.00
2018-05-23T07:51:55.443Z,1916.00
2018-05-23T07:52:55.455Z,1928.00
2018-05-23T07:53:55.425Z,1924.00
2018-05-23T07:54:55.458Z,1920.00
2018-05-23T07:55:55.406Z,1920.00
2018-05-23T07:56:55.398Z,1916.00
2018-05-23T07:57:55.404Z,1920.00
2018-05-23T07:58:55.401Z,1924.00
2018-05-23T07:59:55.365Z,1928.00
2018-05-23T08:00:55.355Z,1920.00
2018-05-23T08:01:55.342Z,1936.00
2018-05-23T08:02:55.334Z,1932.00
2018-05-23T08:03:55.340Z,1928.00
2018-05-23T08:04:55.337Z,1932.00
2018-05-23T08:05:55.308Z,1940.00
2018-05-23T08:06:55.293Z,1932.00
2018-05-23T08:07:55.318Z,1944.00
2018-05-23T08:08:55.467Z,1952.00
2018-05-23T08:09:55.286Z,1984.00
2018-05-23T08:10:55.279Z,2008.00
2018-05-23T08:11:55.251Z,2024.00
2018-05-23T08:12:55.257Z,2048.00
2018-05-23T08:13:55.231Z,2064.00
2018-05-23T08:14:55.223Z,2100.00
2018-05-23T08:15:55.226Z,2128.00
2018-05-23T08:16:55.213Z,2148.00
2018-05-23T08:17:55.194Z,2152.00
2018-05-23T08:18:55.186Z,2188.00
2018-05-23T08:19:55.170Z,2208.00
2018-05-23T08:20:55.188Z,2208.00
2018-05-23T08:21:55.153Z,2200.00
2018-05-23T08:22:55.195Z,2196.00
2018-05-23T08:23:55.131Z,2192.00
2018-05-23T08:24:55.128Z,2180.00
2018-05-23T08:25:55.119Z,2140.00
2018-05-23T08:26:55.140Z,2116.00
2018-05-23T08:27:55.096Z,2060.00
2018-05-23T08:28:55.096Z,1988.00
2018-05-23T08:29:55.101Z,2008.00
2018-05-23T08:30:55.074Z,1988.00
2018-05-23T08:31:55.225Z,1996.00
2018-05-23T08:32:55.068Z,2048.00
2018-05-23T08:33:55.051Z,2112.00
2018-05-23T08:34:55.042Z,2112.00
2018-05-23T08:35:55.030Z,2064.00
2018-05-23T08:36:55.037Z,1996.00
2018-05-23T08:37:55.026Z,1932.00
2018-05-23T08:38:55.008Z,1888.00
2018-05-23T08:39:54.998Z,1816.00
2018-05-23T08:40:55.000Z,1740.00
2018-05-23T08:41:54.975Z,1744.00
2018-05-23T08:42:54.969Z,1812.00
2018-05-23T08:43:54.988Z,1888.00
2018-05-23T08:44:55.003Z,1964.00
2018-05-23T08:45:54.985Z,1948.00
2018-05-23T08:46:54.931Z,1892.00
2018-05-23T08:47:54.923Z,1836.00
2018-05-23T08:48:54.929Z,1808.00
2018-05-23T08:49:54.909Z,1744.00
2018-05-23T08:50:54.894Z,1704.00
2018-05-23T08:51:54.882Z,1768.00
2018-05-23T08:52:54.891Z,1888.00
2018-05-23T08:53:56.925Z,2040.00
2018-05-23T08:54:54.878Z,2256.00
2018-05-23T08:55:54.873Z,2588.00
2018-05-23T08:56:54.843Z,2848.00
2018-05-23T08:57:54.834Z,2904.00
2018-05-23T08:58:54.829Z,2968.00
2018-05-23T08:59:54.826Z,3224.00
2018-05-23T09:00:54.820Z,3452.00
2018-05-23T09:01:57.064Z,3556.00
2018-05-23T09:02:54.808Z,3664.00
2018-05-23T09:03:54.780Z,3656.00
2018-05-23T09:04:54.771Z,3836.00
2018-05-23T09:05:54.765Z,4032.00
2018-05-23T09:06:54.841Z,3488.00
2018-05-23T09:07:54.746Z,3332.00
2018-05-23T09:08:54.739Z,3360.00
2018-05-23T09:09:54.743Z,3424.00
2018-05-23T09:10:54.727Z,3088.00
2018-05-23T09:11:54.738Z,2812.00
2018-05-23T09:12:54.708Z,2668.00
2018-05-23T09:13:54.696Z,2560.00
2018-05-23T09:14:54.692Z,2584.00
2018-05-23T09:15:54.683Z,3100.00
2018-05-23T09:16:54.672Z,3132.00
2018-05-23T09:17:54.687Z,3484.00
2018-05-23T09:18:54.656Z,3208.00
2018-05-23T09:19:54.650Z,3532.00
2018-05-23T09:20:54.658Z,5968.00
2018-05-23T09:21:54.632Z,3816.00
2018-05-23T09:22:54.655Z,3596.00
2018-05-23T09:23:54.631Z,5152.00
2018-05-23T09:24:54.619Z,3800.00
2018-05-23T09:25:54.618Z,4120.00
2018-05-23T09:26:54.590Z,6240.00
2018-05-23T09:27:54.600Z,6468.00
2018-05-23T09:28:54.574Z,7072.00
2018-05-23T09:29:54.587Z,7460.00
2018-05-23T09:30:54.575Z,5140.00
2018-05-23T09:31:54.558Z,3912.00
2018-05-23T09:32:54.567Z,5012.00
2018-05-23T09:33:54.549Z,5896.00
2018-05-23T09:34:54.544Z,5256.00
2018-05-23T09:35:54.533Z,8552.00
2018-05-23T09:36:54.530Z,6556.00
2018-05-23T09:37:54.529Z,5228.00
2018-05-23T09:38:54.504Z,4712.00
2018-05-23T09:39:54.494Z,5464.00
2018-05-23T09:40:54.485Z,5920.00
2018-05-23T09:41:54.483Z,4748.00
2018-05-23T09:42:54.490Z,4368.00
2018-05-23T09:43:54.481Z,3924.00
2018-05-23T09:44:54.460Z,3532.00
2018-05-23T09:45:54.450Z,3268.00
2018-05-23T09:46:54.449Z,3064.00
2018-05-23T09:47:54.456Z,3052.00
2018-05-23T09:48:54.437Z,3212.00
2018-05-23T09:49:54.430Z,3304.00
2018-05-23T09:50:54.424Z,3320.00
2018-05-23T09:51:54.431Z,3404.00
2018-05-23T09:52:54.421Z,3704.00
2018-05-23T09:53:54.419Z,4392.00
2018-05-23T09:54:54.409Z,4788.00
2018-05-23T09:55:54.390Z,5336.00
2018-05-23T09:56:54.383Z,6916.00
2018-05-23T09:57:54.377Z,10448.00
2018-05-23T09:58:54.369Z,5432.00
2018-05-23T09:59:54.381Z,4356.00
2018-05-23T10:00:54.363Z,4192.00
2018-05-23T10:01:54.346Z,4436.00
2018-05-23T10:02:54.370Z,4824.00
2018-05-23T10:03:54.332Z,4620.00
2018-05-23T10:04:54.340Z,4296.00
2018-05-23T10:05:54.321Z,4632.00
2018-05-23T10:06:54.317Z,6132.00
2018-05-23T10:07:54.307Z,9580.00
2018-05-23T10:08:54.324Z,18368.00
2018-05-23T10:09:54.296Z,18624.00
2018-05-23T10:10:54.285Z,24512.00
2018-05-23T10:11:54.292Z,22368.00
2018-05-23T10:12:56.434Z,20512.00
2018-05-23T10:13:57.947Z,20416.00
2018-05-23T10:14:54.312Z,16160.00
2018-05-23T10:15:54.269Z,18848.00
2018-05-23T10:16:54.266Z,19424.00
2018-05-23T10:17:54.249Z,10336.00
2018-05-23T10:18:54.244Z,12440.00
2018-05-23T10:19:54.262Z,13492.00
2018-05-23T10:20:54.248Z,16832.00
2018-05-23T10:21:54.236Z,7680.00
2018-05-23T10:22:54.232Z,17664.00
2018-05-23T10:23:54.235Z,19072.00
2018-05-23T10:24:54.244Z,20960.00
2018-05-23T10:25:54.238Z,20608.00
2018-05-23T10:26:54.231Z,21792.00
2018-05-23T10:27:54.217Z,4400.00
2018-05-23T10:28:54.211Z,3308.00
2018-05-23T10:29:54.243Z,5032.00
2018-05-23T10:30:54.212Z,22016.00
2018-05-23T10:32:02.081Z,19968.00
2018-05-23T10:32:54.221Z,19776.00
2018-05-23T10:33:54.215Z,12552.00
2018-05-23T10:34:54.210Z,6616.00
2018-05-23T10:35:54.211Z,13916.00
2018-05-23T10:36:54.201Z,9724.00
2018-05-23T10:37:54.195Z,8100.00
2018-05-23T10:38:54.197Z,9584.00
2018-05-23T10:39:54.185Z,7084.00
2018-05-23T10:40:54.208Z,10520.00
2018-05-23T10:41:54.200Z,8740.00
2018-05-23T10:42:54.188Z,7352.00
2018-05-23T10:43:54.184Z,7308.00
2018-05-23T10:44:54.176Z,10792.00
2018-05-23T10:45:54.177Z,14188.00
2018-05-23T10:46:54.193Z,9244.00
2018-05-23T10:47:54.178Z,14296.00
2018-05-23T10:48:54.168Z,3988.00
2018-05-23T10:49:54.172Z,4380.00
2018-05-23T10:50:54.180Z,13892.00
2018-05-23T10:51:54.189Z,15264.00
2018-05-23T10:52:54.163Z,13612.00
2018-05-23T10:53:54.156Z,13468.00
2018-05-23T10:54:54.155Z,3376.00
2018-05-23T10:55:54.152Z,2596.00
2018-05-23T10:56:54.178Z,9688.00
2018-05-23T10:57:54.155Z,12036.00
2018-05-23T10:58:54.151Z,12620.00
2018-05-23T10:59:54.141Z,3656.00
2018-05-23T11:00:54.141Z,2364.00
2018-05-23T11:01:54.155Z,2372.00
2018-05-23T11:02:54.159Z,2236.00
2018-05-23T11:03:54.137Z,2580.00
2018-05-23T11:04:54.133Z,2812.00
2018-05-23T11:05:54.197Z,1816.00
2018-05-23T11:06:54.121Z,1556.00
2018-05-23T11:07:54.141Z,1696.00
2018-05-23T11:08:54.117Z,2240.00
2018-05-23T11:09:54.112Z,3504.00
2018-05-23T11:10:54.303Z,4380.00
2018-05-23T11:11:54.101Z,4780.00
2018-05-23T11:12:54.113Z,7980.00
2018-05-23T11:13:54.111Z,13452.00
2018-05-23T11:14:54.195Z,8136.00
2018-05-23T11:15:54.084Z,8760.00
2018-05-23T11:16:54.997Z,12060.00
2018-05-23T11:17:54.076Z,7252.00
2018-05-23T11:18:54.141Z,12596.00
2018-05-23T11:19:54.073Z,5420.00
2018-05-23T11:20:54.071Z,9048.00
2018-05-23T11:21:54.056Z,4572.00
2018-05-23T11:22:54.049Z,4936.00
2018-05-23T11:23:54.051Z,4840.00
2018-05-23T11:24:54.060Z,5064.00
2018-05-23T11:25:54.038Z,4500.00
2018-05-23T11:26:54.038Z,4268.00
2018-05-23T11:27:54.028Z,5836.00
2018-05-23T11:28:54.027Z,5416.00
2018-05-23T11:29:54.028Z,5612.00
2018-05-23T11:30:54.033Z,7804.00
2018-05-23T11:31:54.012Z,7936.00
2018-05-23T11:32:54.014Z,9224.00
2018-05-23T11:33:54.623Z,4388.00
2018-05-23T11:34:54.009Z,13320.00
2018-05-23T11:35:54.017Z,6340.00
2018-05-23T11:36:53.999Z,9592.00
2018-05-23T11:37:53.984Z,3912.00
2018-05-23T11:38:53.983Z,2228.00
2018-05-23T11:39:54.224Z,2532.00
2018-05-23T11:41:14.997Z,2488.00
2018-05-23T11:41:53.981Z,2640.00
2018-05-23T11:42:57.551Z,3088.00
2018-05-23T11:43:53.968Z,3576.00
2018-05-23T11:44:53.965Z,3372.00
2018-05-23T11:45:53.958Z,3164.00
2018-05-23T11:46:53.970Z,3004.00
2018-05-23T11:47:53.964Z,3036.00
2018-05-23T11:48:56.612Z,1768.00
2018-05-23T11:49:57.722Z,1684.00
2018-05-23T11:50:53.942Z,1540.00
2018-05-23T11:51:53.938Z,1528.00
2018-05-23T11:52:53.945Z,1476.00
2018-05-23T11:53:53.923Z,1440.00
2018-05-23T11:54:53.921Z,1508.00
2018-05-23T11:55:53.909Z,1504.00
2018-05-23T11:56:53.905Z,1580.00
2018-05-23T11:57:53.914Z,1504.00
2018-05-23T11:58:53.894Z,1560.00
2018-05-23T11:59:53.886Z,1364.00
2018-05-23T12:00:53.896Z,1376.00
2018-05-23T12:01:53.897Z,1152.00
2018-05-23T12:02:53.894Z,1108.00
2018-05-23T12:03:53.860Z,1132.00
2018-05-23T12:04:53.860Z,1220.00
2018-05-23T12:05:53.863Z,1168.00
2018-05-23T12:06:53.844Z,1268.00
2018-05-23T12:07:53.856Z,1396.00
2018-05-23T12:08:53.840Z,1424.00
2018-05-23T12:09:53.822Z,1464.00
2018-05-23T12:10:53.820Z,1456.00
2018-05-23T12:11:53.808Z,1516.00
2018-05-23T12:12:53.835Z,1592.00
2018-05-23T12:13:53.797Z,1624.00
2018-05-23T12:14:53.790Z,1656.00
2018-05-23T12:15:53.784Z,1632.00
2018-05-23T12:16:53.769Z,1756.00
2018-05-23T12:17:53.766Z,1752.00
2018-05-23T12:18:53.774Z,1696.00
2018-05-23T12:19:53.751Z,1908.00
2018-05-23T12:20:53.770Z,1948.00
2018-05-23T12:21:53.735Z,1968.00
2018-05-23T12:22:53.729Z,2068.00
2018-05-23T12:23:53.719Z,2072.00
2018-05-23T12:24:53.713Z,2112.00
2018-05-23T12:25:53.697Z,1996.00
2018-05-23T12:26:53.713Z,1872.00
2018-05-23T12:27:53.691Z,1912.00
2018-05-23T12:28:53.678Z,1880.00
2018-05-23T12:29:53.739Z,1756.00
2018-05-23T12:30:53.668Z,1748.00
2018-05-23T12:31:53.695Z,1756.00
2018-05-23T12:32:53.647Z,1688.00